Terminal Aerodrome Forecast
Issued by NWS Glasgow, MT

Home | Current Version | Previous Version | Text Only | Print | Product List | Glossary On
Versions: 1 2 3 4 5 6 7 8 9 10 11 12 13 14 15 16 17
000
FTUS45 KGGW 220500
TAFGGW
TAF
KGGW 220524Z 2206/2306 29012KT P6SM VCSH SCT120 BKN250
     FM221100 28008KT P6SM SCT030 BKN050
     FM221800 27013G19KT P6SM SKC
     FM222300 VRB06KT P6SM SKC=

USA.gov is the U.S. government's official web portal to all federal, state and local government web resources and services.